Time;durP1;ratioP1;P1;durP2;ratioP2;P2;SDS_P1;SDS_P2;PMS_P1;PMS_P2;Temp;Humidity;BMP_temperature;BMP_pressure;BME280_temperature;BME280_humidity;BME280_pressure;Samples;Min_cycle;Max_cycle;Signal;HPM_P1;HPM_P2
2022/12/19 00:05:43;;;;;;;20.93;12.07;;;;;;;-10.23;76.80;101988.34;30730796;28;96764;-71
2022/12/19 00:20:44;;;;;;;24.17;17.60;;;;;;;-10.46;76.55;102003.75;30741263;28;96837;-70
2022/12/19 00:35:44;;;;;;;29.37;14.50;;;;;;;-10.57;77.09;101970.19;30741498;28;96766;-70
2022/12/19 00:50:44;;;;;;;19.27;10.57;;;;;;;-10.59;77.14;101977.03;30740211;28;96812;-69
2022/12/19 01:05:45;;;;;;;7.90;7.27;;;;;;;-10.58;77.14;101978.75;30736709;28;96906;-68
2022/12/19 01:20:48;;;;;;;29.30;13.80;;;;;;;-10.57;77.56;101960.72;30737368;28;96689;-70
2022/12/19 01:35:48;;;;;;;30.90;17.37;;;;;;;-10.60;77.84;101923.81;30665635;28;97629;-69
2022/12/19 01:50:54;;;;;;;19.30;13.73;;;;;;;-10.61;77.38;101894.59;30615232;28;96754;-73
2022/12/19 02:05:57;;;;;;;34.73;20.07;;;;;;;-10.62;77.60;101862.00;30614281;28;96741;-73
2022/12/19 02:21:47;;;;;;;22.70;16.63;;;;;;;-10.51;77.94;101850.84;30612235;28;96687;-70
2022/12/19 02:36:53;;;;;;;23.40;19.23;;;;;;;-10.42;77.01;101835.41;30608565;28;96738;-74
2022/12/19 02:51:54;;;;;;;11.93;10.60;;;;;;;-10.40;77.03;101801.06;30610549;28;97313;-69
2022/12/19 03:07:29;;;;;;;26.00;15.20;;;;;;;-10.33;76.98;101798.47;30624097;28;96923;-71
2022/12/19 03:22:30;;;;;;;17.97;12.83;;;;;;;-10.14;77.92;101771.00;30610276;28;96789;-70
2022/12/19 03:37:35;;;;;;;18.80;16.00;;;;;;;-10.06;77.78;101761.53;30627057;28;96880;-68
2022/12/19 03:53:05;;;;;;;17.13;12.93;;;;;;;-10.00;77.46;101746.09;30623480;28;97664;-69
2022/12/19 04:08:07;;;;;;;23.60;17.53;;;;;;;-10.01;77.91;101716.00;30623869;28;97682;-71
2022/12/19 04:23:17;;;;;;;39.93;19.47;;;;;;;-10.01;77.67;101705.69;30624212;28;96721;-70
2022/12/19 04:38:17;;;;;;;19.00;14.57;;;;;;;-10.04;77.38;101722.00;30621488;28;97224;-74
2022/12/19 04:53:18;;;;;;;26.73;17.13;;;;;;;-10.04;76.62;101698.81;30619874;28;96637;-73
2022/12/19 05:08:18;;;;;;;24.93;16.93;;;;;;;-10.08;76.55;101675.63;30616793;28;96824;-71
2022/12/19 05:23:19;;;;;;;25.93;18.07;;;;;;;-10.04;76.65;101693.66;30614564;28;96689;-69
2022/12/19 05:38:19;;;;;;;23.17;18.07;;;;;;;-9.97;77.84;101673.03;30614878;28;96689;-75
2022/12/19 05:53:20;;;;;;;15.40;10.43;;;;;;;-9.87;77.48;101674.72;30609594;28;96618;-67
2022/12/19 06:08:20;;;;;;;38.73;15.17;;;;;;;-9.81;77.82;101653.22;30610524;28;96910;-72
2022/12/19 06:23:21;;;;;;;37.03;16.47;;;;;;;-9.87;77.61;101675.59;30610339;28;96605;-71
2022/12/19 06:38:22;;;;;;;19.23;11.10;;;;;;;-9.62;77.20;101670.38;30608831;28;96626;-77
2022/12/19 06:53:22;;;;;;;16.13;14.57;;;;;;;-9.30;77.80;101658.19;30607496;28;96600;-80
2022/12/19 07:08:23;;;;;;;28.50;15.20;;;;;;;-8.99;77.47;101650.25;30626324;28;97765;-68
2022/12/19 07:23:23;;;;;;;9.03;7.60;;;;;;;-8.36;77.38;101626.50;30586869;28;97447;-66
2022/12/19 07:38:23;;;;;;;26.33;14.93;;;;;;;-7.65;77.13;101610.22;30593581;28;98401;-69
2022/12/19 07:53:24;;;;;;;14.47;11.83;;;;;;;-6.34;77.21;101610.00;30588837;28;97893;-76
2022/12/19 08:08:25;;;;;;;32.50;16.37;;;;;;;-4.98;76.45;101607.22;30608874;28;96910;-70
2022/12/19 08:23:25;;;;;;;13.00;7.97;;;;;;;-2.95;74.38;101584.34;30583415;28;97110;-67
2022/12/19 08:38:25;;;;;;;26.27;13.13;;;;;;;-0.06;67.39;101571.66;30595131;28;97164;-71
2022/12/19 08:53:28;;;;;;;39.22;18.42;;;;;;;-0.14;65.78;101563.28;30601543;28;96679;-69
2022/12/19 09:08:30;;;;;;;25.40;13.57;;;;;;;3.24;62.00;101552.38;30612973;28;98338;-76
2022/12/19 09:23:30;;;;;;;24.83;12.25;;;;;;;8.33;54.52;101539.66;30612796;28;97544;-68
2022/12/19 09:38:33;;;;;;;23.55;12.45;;;;;;;10.40;47.29;101522.38;30613994;28;96541;-70
2022/12/19 09:54:22;;;;;;;27.27;12.88;;;;;;;13.23;41.87;101482.31;30596562;28;96785;-67
2022/12/19 10:09:32;;;;;;;24.03;14.37;;;;;;;15.07;37.03;101469.28;30487464;28;97319;-69
2022/12/19 10:24:41;;;;;;;24.40;13.17;;;;;;;15.81;34.28;101442.28;30538971;28;97169;-75
2022/12/19 10:40:14;;;;;;;25.33;13.27;;;;;;;15.19;30.79;101443.78;30555796;28;96864;-70
2022/12/19 10:55:39;;;;;;;25.10;12.67;;;;;;;13.12;29.24;101419.19;30562323;28;96850;-70
2022/12/19 11:10:43;;;;;;;22.63;11.23;;;;;;;15.88;26.37;101407.50;30544030;28;96822;-71
2022/12/19 11:25:53;;;;;;;25.57;13.50;;;;;;;14.81;26.17;101360.28;30626674;28;97093;-72
2022/12/19 11:41:01;;;;;;;23.17;10.83;;;;;;;12.24;28.88;101350.50;30624398;28;96702;-73
2022/12/19 11:56:08;;;;;;;15.53;8.40;;;;;;;9.62;33.25;101313.53;30641988;28;97016;-71
2022/12/19 12:11:11;;;;;;;13.55;7.68;;;;;;;8.62;35.20;101322.19;30503259;28;97132;-74
2022/12/19 12:26:28;;;;;;;14.20;7.40;;;;;;;9.01;36.06;101322.41;30561235;28;96802;-75
2022/12/19 12:56:50;;;;;;;17.20;8.65;;;;;;;7.11;38.95;101275.09;30543546;28;97008;-72
2022/12/19 13:27:21;;;;;;;14.23;7.95;;;;;;;3.97;43.59;101262.38;30481976;28;97535;-73
2022/12/19 13:57:47;;;;;;;20.15;9.73;;;;;;;1.09;50.60;101254.91;30497408;28;97037;-71
2022/12/19 14:28:15;;;;;;;13.02;7.07;;;;;;;-0.17;55.49;101257.81;30489771;28;96860;-69
2022/12/19 14:43:39;;;;;;;15.55;8.95;;;;;;;-0.35;56.89;101250.88;30549890;28;96892;-68
2022/12/19 14:58:40;;;;;;;15.07;8.33;;;;;;;-0.48;58.21;101232.25;30566896;28;97147;-66
2022/12/19 15:13:40;;;;;;;18.15;9.07;;;;;;;-0.69;59.01;101210.59;30585349;28;96762;-66
2022/12/19 15:28:45;;;;;;;10.75;7.03;;;;;;;-0.86;60.61;101211.41;30620316;28;96828;-66
2022/12/19 15:43:46;;;;;;;18.10;9.60;;;;;;;-1.05;61.26;101195.69;30620575;28;96758;-67
2022/12/19 15:58:46;;;;;;;21.08;9.70;;;;;;;-0.98;61.81;101172.72;30620552;28;97256;-67
2022/12/19 16:13:53;;;;;;;19.77;11.13;;;;;;;-0.88;62.43;101156.50;30620117;28;96954;-65
2022/12/19 16:28:53;;;;;;;20.20;11.32;;;;;;;-0.74;63.33;101142.78;30570373;28;97405;-65
2022/12/19 16:43:54;;;;;;;16.02;9.15;;;;;;;-0.68;63.51;101137.25;30545500;28;97361;-66
2022/12/19 16:58:55;;;;;;;11.05;6.65;;;;;;;-0.50;63.62;101133.81;30504119;28;97281;-67
2022/12/19 17:14:03;;;;;;;20.15;9.65;;;;;;;-0.40;63.87;101128.03;30578899;28;96783;-67
2022/12/19 17:29:03;;;;;;;9.60;5.75;;;;;;;-0.29;63.92;101144.97;30570812;28;96775;-67
2022/12/19 17:44:04;;;;;;;17.67;8.07;;;;;;;-0.18;63.98;101106.00;30545472;28;97088;-66
2022/12/19 17:59:04;;;;;;;15.10;7.43;;;;;;;-0.14;63.95;101118.00;30497633;28;96711;-67
2022/12/19 18:14:04;;;;;;;13.50;6.53;;;;;;;-0.12;64.30;101125.78;30492587;28;97077;-66
2022/12/19 18:29:05;;;;;;;23.48;9.93;;;;;;;-0.09;64.30;101087.19;30537897;28;96762;-72
2022/12/19 18:44:05;;;;;;;18.17;9.55;;;;;;;-0.12;65.21;101082.13;30548013;28;97923;-69
2022/12/19 18:59:06;;;;;;;14.40;8.90;;;;;;;-0.08;66.10;101070.56;30565030;28;97005;-67
2022/12/19 19:14:06;;;;;;;14.43;7.45;;;;;;;0.09;66.32;101046.06;30576416;28;97167;-69
2022/12/19 19:29:06;;;;;;;13.93;8.57;;;;;;;0.22;66.34;101035.81;30623281;28;97009;-69
2022/12/19 19:44:07;;;;;;;17.40;9.80;;;;;;;0.32;66.09;101060.56;30522840;28;97357;-69
2022/12/19 19:59:07;;;;;;;12.45;7.18;;;;;;;0.54;65.98;101048.09;30502847;28;96941;-70
2022/12/19 20:14:08;;;;;;;12.52;7.95;;;;;;;0.61;65.53;101054.69;30501468;28;97043;-68
2022/12/19 20:29:10;;;;;;;18.75;10.85;;;;;;;0.67;65.85;101020.25;30501718;28;96679;-68
2022/12/19 20:44:10;;;;;;;17.83;9.77;;;;;;;0.73;65.71;101014.66;30496716;28;97133;-66
2022/12/19 20:59:11;;;;;;;18.58;9.27;;;;;;;0.57;66.05;101022.53;30497333;28;97656;-65
2022/12/19 21:14:11;;;;;;;12.73;6.55;;;;;;;0.58;66.79;101031.25;30547121;28;97327;-68
2022/12/19 21:29:12;;;;;;;19.77;9.63;;;;;;;0.79;66.62;100998.59;30543837;28;97174;-69
2022/12/19 21:44:12;;;;;;;18.05;9.98;;;;;;;0.80;67.19;100991.56;30531235;28;97728;-68
2022/12/19 21:59:15;;;;;;;23.52;9.88;;;;;;;0.63;67.47;101008.22;30490677;28;98825;-67
2022/12/19 22:14:16;;;;;;;24.45;11.70;;;;;;;0.49;68.65;100986.25;30526696;28;97090;-67
2022/12/19 22:29:17;;;;;;;23.67;12.82;;;;;;;0.41;69.57;100988.47;30568443;28;96839;-67
2022/12/19 22:44:20;;;;;;;13.85;7.47;;;;;;;0.50;70.64;100981.84;30529137;28;97440;-67
2022/12/19 22:59:21;;;;;;;15.10;8.25;;;;;;;0.43;70.38;100983.13;30530553;28;96693;-67
2022/12/19 23:14:21;;;;;;;19.75;10.38;;;;;;;0.44;71.37;100964.69;30529144;28;96804;-67
2022/12/19 23:29:21;;;;;;;19.20;9.98;;;;;;;0.53;71.63;100939.72;30527329;28;96732;-68
2022/12/19 23:44:22;;;;;;;14.80;7.90;;;;;;;0.70;71.59;100938.78;30515266;28;96639;-67
2022/12/19 23:59:22;;;;;;;16.70;7.90;;;;;;;0.65;71.29;100917.22;30504604;28;96934;-67
